Time;durP1;ratioP1;P1;durP2;ratioP2;P2;SDS_P1;SDS_P2;PMS_P1;PMS_P2;Temp;Humidity;BMP_temperature;BMP_pressure;BME280_temperature;BME280_humidity;BME280_pressure;Samples;Min_cycle;Max_cycle;Signal;HPM_P1;HPM_P2
2022/06/06 00:01:14;;;;;;;2.10;1.90;;;;;;;;;;5032681;28;20083;-38
2022/06/06 00:03:40;;;;;;;4.13;2.05;;;;;;;;;;5032810;28;20021;-39
2022/06/06 00:06:10;;;;;;;2.20;2.10;;;;;;;;;;5031484;28;20469;-38
2022/06/06 00:08:35;;;;;;;3.30;2.35;;;;;;;;;;5033073;28;20539;-38
2022/06/06 00:11:02;;;;;;;5.22;2.10;;;;;;;;;;5032615;28;20101;-38
2022/06/06 00:13:28;;;;;;;4.38;1.70;;;;;;;;;;5032911;28;20049;-38
2022/06/06 00:15:53;;;;;;;2.30;2.10;;;;;;;;;;5032592;28;20064;-38
2022/06/06 00:18:18;;;;;;;2.05;1.88;;;;;;;;;;5032392;28;20021;-39
2022/06/06 00:20:44;;;;;;;3.42;1.95;;;;;;;;;;5032702;28;20013;-38
2022/06/06 00:23:09;;;;;;;2.75;2.05;;;;;;;;;;5032351;28;20010;-38
2022/06/06 00:25:34;;;;;;;2.30;2.10;;;;;;;;;;5032730;28;20535;-38
2022/06/06 00:27:59;;;;;;;4.43;2.20;;;;;;;;;;5032248;28;20120;-38
2022/06/06 00:30:25;;;;;;;4.53;2.13;;;;;;;;;;5032373;28;20044;-38
2022/06/06 00:35:34;;;;;;;2.90;2.30;;;;;;;;;;5032362;28;20032;-38
2022/06/06 00:37:59;;;;;;;2.35;2.15;;;;;;;;;;5032439;28;20021;-38
2022/06/06 00:40:26;;;;;;;3.47;2.38;;;;;;;;;;5032697;28;20028;-39
2022/06/06 00:42:51;;;;;;;2.45;2.17;;;;;;;;;;5030869;28;20021;-38
2022/06/06 00:45:19;;;;;;;3.42;2.17;;;;;;;;;;5034286;28;20021;-38
2022/06/06 00:47:45;;;;;;;5.40;2.42;;;;;;;;;;5035619;28;20465;-39
2022/06/06 00:50:13;;;;;;;2.65;2.08;;;;;;;;;;5034682;28;20029;-39
2022/06/06 00:52:40;;;;;;;4.10;2.20;;;;;;;;;;5034663;28;20021;-39
2022/06/06 00:55:08;;;;;;;1.90;1.67;;;;;;;;;;5035866;28;20301;-39
2022/06/06 00:57:36;;;;;;;2.58;2.30;;;;;;;;;;5034497;28;20022;-39
2022/06/06 01:00:06;;;;;;;2.15;1.90;;;;;;;;;;5034282;28;20032;-39
2022/06/06 01:02:31;;;;;;;3.10;2.10;;;;;;;;;;5035584;28;20070;-38
2022/06/06 01:04:57;;;;;;;2.20;2.00;;;;;;;;;;5034362;28;20446;-38
2022/06/06 01:07:22;;;;;;;2.95;2.00;;;;;;;;;;5035400;28;20489;-38
2022/06/06 01:09:48;;;;;;;2.42;1.88;;;;;;;;;;5035440;28;20025;-38
2022/06/06 01:12:16;;;;;;;2.40;2.03;;;;;;;;;;5034194;28;20029;-38
2022/06/06 01:14:45;;;;;;;4.00;2.20;;;;;;;;;;5035199;28;20029;-39
2022/06/06 01:17:19;;;;;;;2.33;2.10;;;;;;;;;;5035225;28;20243;-38
2022/06/06 01:20:03;;;;;;;2.58;2.35;;;;;;;;;;5034001;28;20301;-38
2022/06/06 01:22:47;;;;;;;2.50;2.30;;;;;;;;;;5035194;28;20026;-39
2022/06/06 01:25:22;;;;;;;2.22;1.95;;;;;;;;;;5033693;28;20045;-39
2022/06/06 01:27:57;;;;;;;2.25;2.05;;;;;;;;;;5033950;28;20034;-38
2022/06/06 01:30:23;;;;;;;3.20;2.00;;;;;;;;;;5035232;28;20071;-38
2022/06/06 01:32:50;;;;;;;5.45;2.03;;;;;;;;;;5035102;28;20026;-39
2022/06/06 01:35:27;;;;;;;3.58;2.38;;;;;;;;;;5033782;28;20021;-38
2022/06/06 01:37:53;;;;;;;2.45;2.10;;;;;;;;;;5033508;28;20029;-38
2022/06/06 01:40:18;;;;;;;2.63;2.42;;;;;;;;;;5035024;28;20018;-38
2022/06/06 01:42:48;;;;;;;4.63;2.42;;;;;;;;;;5035117;28;20025;-38
2022/06/06 01:45:17;;;;;;;6.30;2.47;;;;;;;;;;5033590;28;20469;-38
2022/06/06 01:47:46;;;;;;;3.37;2.70;;;;;;;;;;5033549;28;20124;-38
2022/06/06 01:50:11;;;;;;;5.43;2.92;;;;;;;;;;5034888;28;20293;-39
2022/06/06 01:52:51;;;;;;;3.33;2.85;;;;;;;;;;5034465;28;20065;-39
2022/06/06 01:55:16;;;;;;;3.40;2.30;;;;;;;;;;5034248;28;20124;-38
2022/06/06 01:57:42;;;;;;;4.25;2.47;;;;;;;;;;5033875;28;20657;-38
2022/06/06 02:00:07;;;;;;;3.38;2.90;;;;;;;;;;5033242;28;20435;-38
2022/06/06 02:02:33;;;;;;;5.00;3.03;;;;;;;;;;5033149;28;20515;-39
2022/06/06 02:04:58;;;;;;;3.30;2.92;;;;;;;;;;5033006;28;20021;-39
2022/06/06 02:07:23;;;;;;;2.40;2.20;;;;;;;;;;5034136;28;20387;-39
2022/06/06 02:09:48;;;;;;;3.38;2.63;;;;;;;;;;5033186;28;20147;-38
2022/06/06 02:12:14;;;;;;;4.35;2.58;;;;;;;;;;5034303;28;20021;-38
2022/06/06 02:14:39;;;;;;;3.97;2.45;;;;;;;;;;5034714;28;20373;-38
2022/06/06 02:17:06;;;;;;;4.55;2.67;;;;;;;;;;5034088;28;20035;-38
2022/06/06 02:19:31;;;;;;;3.58;2.63;;;;;;;;;;5034157;28;20029;-39
2022/06/06 02:21:57;;;;;;;3.05;2.63;;;;;;;;;;5033023;28;20030;-38
2022/06/06 02:24:22;;;;;;;6.70;2.75;;;;;;;;;;5032958;28;20018;-39
2022/06/06 02:26:47;;;;;;;2.80;2.50;;;;;;;;;;5033876;28;20041;-38
2022/06/06 02:29:13;;;;;;;3.72;2.85;;;;;;;;;;5033915;28;20025;-38
2022/06/06 02:31:38;;;;;;;3.63;2.42;;;;;;;;;;5034027;28;20021;-38
2022/06/06 02:34:04;;;;;;;3.15;2.75;;;;;;;;;;5032376;28;20052;-39
2022/06/06 02:36:30;;;;;;;3.25;2.75;;;;;;;;;;5033799;28;20079;-39
2022/06/06 02:38:55;;;;;;;3.40;2.78;;;;;;;;;;5032644;28;20021;-38
2022/06/06 02:41:22;;;;;;;3.13;2.67;;;;;;;;;;5033721;28;20032;-39
2022/06/06 02:43:48;;;;;;;4.18;2.80;;;;;;;;;;5033456;28;20555;-39
2022/06/06 02:46:13;;;;;;;3.28;2.55;;;;;;;;;;5033537;28;20025;-39
2022/06/06 02:48:39;;;;;;;3.38;2.75;;;;;;;;;;5033453;28;20025;-39
2022/06/06 02:51:04;;;;;;;4.75;3.20;;;;;;;;;;5033323;28;20033;-39
2022/06/06 02:53:30;;;;;;;7.50;3.35;;;;;;;;;;5033829;28;20021;-39
2022/06/06 02:55:56;;;;;;;6.00;3.10;;;;;;;;;;5033877;28;20018;-39
2022/06/06 02:58:22;;;;;;;3.95;3.53;;;;;;;;;;5033734;28;20030;-38
2022/06/06 03:00:47;;;;;;;6.15;3.10;;;;;;;;;;5032009;28;20108;-38
2022/06/06 03:03:12;;;;;;;3.97;3.00;;;;;;;;;;5033608;28;20031;-38
2022/06/06 03:05:38;;;;;;;3.30;3.00;;;;;;;;;;5033005;28;20389;-38
2022/06/06 03:08:06;;;;;;;4.38;3.30;;;;;;;;;;5031693;28;20022;-39
2022/06/06 03:10:50;;;;;;;4.63;2.60;;;;;;;;;;5032074;28;20022;-38
2022/06/06 03:13:18;;;;;;;5.53;3.25;;;;;;;;;;5032014;28;20029;-38
2022/06/06 03:22:15;;;;;;;3.95;3.35;;;;;;;;;;5002020;28;20076;-39
2022/06/06 03:24:40;;;;;;;3.58;3.20;;;;;;;;;;5028623;28;20045;-38
2022/06/06 03:27:15;;;;;;;4.75;3.17;;;;;;;;;;5033218;28;20042;-38
2022/06/06 03:29:49;;;;;;;4.50;3.40;;;;;;;;;;5031650;28;20021;-38
2022/06/06 03:32:29;;;;;;;5.97;3.30;;;;;;;;;;5033170;28;20029;-38
2022/06/06 03:34:54;;;;;;;;;;;;;;;;;;5032980;28;20101;-39
2022/06/06 03:37:28;;;;;;;3.70;3.40;;;;;;;;;;5031790;28;19912;-38
2022/06/06 03:40:07;;;;;;;7.80;4.00;;;;;;;;;;5031394;28;20033;-38
2022/06/06 03:42:47;;;;;;;5.53;3.58;;;;;;;;;;5032855;28;20056;-38
2022/06/06 03:45:21;;;;;;;4.35;3.60;;;;;;;;;;5032560;28;20049;-39
2022/06/06 03:47:49;;;;;;;3.67;3.35;;;;;;;;;;5033004;28;20383;-38
2022/06/06 03:50:24;;;;;;;4.40;3.65;;;;;;;;;;5031499;28;20454;-38
2022/06/06 03:53:00;;;;;;;4.35;3.47;;;;;;;;;;5031541;28;20159;-38
2022/06/06 03:55:44;;;;;;;4.10;3.70;;;;;;;;;;5032675;28;20022;-38
2022/06/06 03:58:11;;;;;;;5.10;4.18;;;;;;;;;;5032912;28;20026;-38
2022/06/06 04:00:38;;;;;;;4.18;3.60;;;;;;;;;;5032764;28;20072;-38
2022/06/06 04:03:04;;;;;;;3.97;3.47;;;;;;;;;;5032589;28;20025;-38
2022/06/06 04:05:30;;;;;;;5.82;3.30;;;;;;;;;;5031663;28;20028;-38
2022/06/06 04:07:56;;;;;;;4.90;3.70;;;;;;;;;;5031120;28;20118;-38
2022/06/06 04:10:24;;;;;;;3.70;3.40;;;;;;;;;;5031158;28;20061;-38
2022/06/06 04:12:56;;;;;;;5.57;4.40;;;;;;;;;;5032675;28;20078;-39
2022/06/06 04:15:48;;;;;;;5.10;3.90;;;;;;;;;;5031315;28;20040;-38
2022/06/06 04:18:26;;;;;;;3.80;3.33;;;;;;;;;;5029752;28;20167;-38
2022/06/06 04:20:54;;;;;;;6.72;4.10;;;;;;;;;;5035365;28;20026;-38
2022/06/06 04:23:38;;;;;;;4.38;3.88;;;;;;;;;;5035079;28;20028;-37
2022/06/06 04:26:25;;;;;;;4.95;3.38;;;;;;;;;;5035042;28;20172;-37
2022/06/06 04:29:11;;;;;;;5.70;3.63;;;;;;;;;;5034926;28;20029;-37
2022/06/06 04:31:36;;;;;;;3.90;3.50;;;;;;;;;;5024239;28;20040;-38
2022/06/06 04:34:09;;;;;;;4.35;3.70;;;;;;;;;;5034865;28;20420;-38
2022/06/06 04:36:40;;;;;;;5.05;4.40;;;;;;;;;;5034938;28;20017;-38
2022/06/06 04:39:13;;;;;;;4.07;3.65;;;;;;;;;;5036061;28;20066;-38
2022/06/06 04:42:11;;;;;;;7.63;4.15;;;;;;;;;;5034443;28;20097;-38
2022/06/06 04:44:53;;;;;;;7.75;4.07;;;;;;;;;;5034258;28;20045;-38
2022/06/06 04:47:32;;;;;;;4.35;3.95;;;;;;;;;;5035660;28;20033;-38
2022/06/06 04:49:58;;;;;;;3.97;3.67;;;;;;;;;;5034409;28;20501;-38
2022/06/06 04:52:24;;;;;;;6.07;3.92;;;;;;;;;;5035615;28;20022;-38
2022/06/06 04:54:50;;;;;;;4.65;4.10;;;;;;;;;;5034504;28;20029;-38
2022/06/06 04:57:17;;;;;;;5.38;3.60;;;;;;;;;;5035589;28;20472;-38
2022/06/06 04:59:43;;;;;;;5.22;4.38;;;;;;;;;;5035617;28;20022;-38
2022/06/06 05:02:08;;;;;;;4.65;4.15;;;;;;;;;;5035528;28;20014;-38
2022/06/06 05:04:34;;;;;;;4.75;4.05;;;;;;;;;;5035478;28;20014;-38
2022/06/06 05:07:05;;;;;;;7.22;4.03;;;;;;;;;;5035332;28;20037;-38
2022/06/06 05:09:30;;;;;;;6.68;4.00;;;;;;;;;;5034312;28;20083;-38
2022/06/06 05:11:55;;;;;;;5.40;3.73;;;;;;;;;;5035783;28;20026;-38
2022/06/06 05:14:24;;;;;;;4.28;3.78;;;;;;;;;;5034109;28;20254;-38
2022/06/06 05:16:49;;;;;;;4.20;3.80;;;;;;;;;;5033914;28;20028;-38
2022/06/06 05:19:43;;;;;;;6.70;4.03;;;;;;;;;;5035007;28;20365;-39
2022/06/06 05:22:09;;;;;;;4.43;3.97;;;;;;;;;;5034583;28;20274;-38
2022/06/06 05:24:45;;;;;;;5.57;3.70;;;;;;;;;;5034020;28;20021;-38
2022/06/06 05:27:29;;;;;;;4.68;3.83;;;;;;;;;;5033823;28;20279;-38
2022/06/06 05:30:04;;;;;;;3.90;3.53;;;;;;;;;;5034648;28;20032;-37
2022/06/06 05:32:49;;;;;;;5.43;3.50;;;;;;;;;;5033900;28;20025;-38
2022/06/06 05:35:37;;;;;;;6.13;4.10;;;;;;;;;;5033721;28;20033;-38
2022/06/06 05:38:35;;;;;;;4.93;3.42;;;;;;;;;;5033616;28;20025;-38
2022/06/06 05:41:00;;;;;;;4.35;3.33;;;;;;;;;;5033445;28;20113;-38
2022/06/06 05:43:25;;;;;;;5.25;3.80;;;;;;;;;;5034788;28;20158;-38
2022/06/06 05:45:57;;;;;;;4.53;2.73;;;;;;;;;;5033480;28;20031;-38
2022/06/06 05:48:28;;;;;;;4.75;3.13;;;;;;;;;;5033268;28;20041;-38
2022/06/06 05:50:57;;;;;;;5.05;2.97;;;;;;;;;;5034641;28;20029;-38
2022/06/06 05:53:35;;;;;;;3.15;2.85;;;;;;;;;;5035088;28;20029;-38
2022/06/06 05:56:18;;;;;;;2.90;2.70;;;;;;;;;;5033468;28;20388;-37
2022/06/06 05:58:52;;;;;;;5.25;3.15;;;;;;;;;;5034520;28;20021;-38
2022/06/06 06:01:18;;;;;;;3.80;2.67;;;;;;;;;;5033061;28;20550;-38
2022/06/06 06:03:46;;;;;;;5.03;3.10;;;;;;;;;;5033412;28;20053;-38
2022/06/06 06:06:50;;;;;;;3.90;3.08;;;;;;;;;;5033311;28;20270;-38
2022/06/06 06:09:24;;;;;;;3.72;3.00;;;;;;;;;;5015409;28;20099;-38
2022/06/06 06:12:01;;;;;;;6.20;3.15;;;;;;;;;;5032146;28;20022;-38
2022/06/06 06:14:36;;;;;;;5.68;3.28;;;;;;;;;;5024494;28;20029;-38
2022/06/06 06:17:02;;;;;;;3.30;2.97;;;;;;;;;;5034344;28;20026;-38
2022/06/06 06:19:58;;;;;;;3.60;2.90;;;;;;;;;;5032924;28;20032;-38
2022/06/06 06:22:24;;;;;;;3.70;2.80;;;;;;;;;;5032990;28;20025;-37
2022/06/06 06:24:50;;;;;;;4.05;3.15;;;;;;;;;;5034070;28;20099;-38
2022/06/06 06:27:17;;;;;;;4.60;2.88;;;;;;;;;;5034199;28;20060;-37
2022/06/06 06:29:42;;;;;;;4.65;2.72;;;;;;;;;;5033854;28;20515;-38
2022/06/06 06:32:10;;;;;;;4.65;2.90;;;;;;;;;;5033802;28;20117;-38
2022/06/06 06:34:35;;;;;;;4.17;2.77;;;;;;;;;;5032285;28;20044;-38
2022/06/06 06:37:07;;;;;;;3.43;3.13;;;;;;;;;;5034133;28;20437;-38
2022/06/06 06:39:50;;;;;;;6.57;2.72;;;;;;;;;;5034077;28;20316;-38
2022/06/06 06:42:28;;;;;;;6.32;3.08;;;;;;;;;;5031818;28;20484;-37
2022/06/06 06:44:54;;;;;;;3.08;2.80;;;;;;;;;;5032113;28;20064;-38
2022/06/06 06:47:25;;;;;;;3.28;2.47;;;;;;;;;;5032046;28;20378;-38
2022/06/06 06:49:55;;;;;;;5.68;3.03;;;;;;;;;;5032575;28;20116;-38
2022/06/06 06:52:20;;;;;;;3.75;2.72;;;;;;;;;;5032238;28;20026;-38
2022/06/06 06:54:50;;;;;;;5.93;2.77;;;;;;;;;;5032332;28;20029;-38
2022/06/06 06:57:19;;;;;;;2.92;2.63;;;;;;;;;;5033465;28;20250;-38
2022/06/06 06:59:44;;;;;;;3.40;2.65;;;;;;;;;;5033227;28;20104;-38
2022/06/06 07:10:40;;;;;;;2.47;2.08;;;;;;;;;;5033888;28;20028;-38
2022/06/06 07:13:15;;;;;;;2.60;2.30;;;;;;;;;;5033231;28;20104;-38
2022/06/06 07:16:07;;;;;;;3.03;2.50;;;;;;;;;;5033173;28;20044;-39
2022/06/06 07:18:33;;;;;;;2.85;2.45;;;;;;;;;;5032052;28;20481;-38
2022/06/06 07:20:59;;;;;;;3.90;1.90;;;;;;;;;;5033199;28;20122;-38
2022/06/06 07:23:28;;;;;;;2.75;2.55;;;;;;;;;;5031640;28;20112;-38
2022/06/06 07:25:55;;;;;;;2.58;2.08;;;;;;;;;;5033031;28;20017;-38
2022/06/06 07:28:22;;;;;;;5.82;2.38;;;;;;;;;;5031517;28;20048;-38
2022/06/06 07:30:47;;;;;;;2.53;1.98;;;;;;;;;;5031606;28;20022;-38
2022/06/06 07:33:31;;;;;;;2.60;2.40;;;;;;;;;;5032606;28;20112;-38
2022/06/06 07:35:56;;;;;;;4.68;2.35;;;;;;;;;;5031774;28;20017;-38
2022/06/06 07:38:25;;;;;;;2.77;2.50;;;;;;;;;;5032951;28;20028;-38
2022/06/06 07:41:01;;;;;;;3.55;2.15;;;;;;;;;;5032896;28;20022;-38
2022/06/06 07:43:28;;;;;;;3.88;2.25;;;;;;;;;;5031387;28;20373;-39
2022/06/06 07:45:58;;;;;;;2.25;2.00;;;;;;;;;;5031375;28;20057;-39
2022/06/06 07:48:23;;;;;;;2.05;1.90;;;;;;;;;;5032600;28;20414;-39
2022/06/06 07:50:58;;;;;;;5.73;1.83;;;;;;;;;;5032773;28;20068;-38
2022/06/06 07:53:33;;;;;;;2.72;2.00;;;;;;;;;;5031407;28;20065;-38
2022/06/06 07:56:09;;;;;;;4.68;2.20;;;;;;;;;;5035070;28;20060;-39
2022/06/06 07:58:43;;;;;;;2.22;1.98;;;;;;;;;;5036998;28;20373;-39
2022/06/06 08:01:21;;;;;;;3.85;1.55;;;;;;;;;;5036731;28;20461;-39
2022/06/06 08:03:50;;;;;;;2.42;1.80;;;;;;;;;;5035406;28;20026;-39
2022/06/06 08:06:16;;;;;;;1.92;1.80;;;;;;;;;;5036915;28;20057;-39
2022/06/06 08:09:00;;;;;;;3.05;1.92;;;;;;;;;;5036402;28;20080;-39
2022/06/06 08:11:28;;;;;;;3.05;1.88;;;;;;;;;;5035232;28;20407;-40
2022/06/06 08:14:06;;;;;;;1.98;1.77;;;;;;;;;;5035346;28;20078;-39
2022/06/06 08:16:39;;;;;;;2.50;2.20;;;;;;;;;;5035260;28;20025;-39
2022/06/06 08:19:04;;;;;;;3.08;1.92;;;;;;;;;;5034900;28;20022;-39
2022/06/06 08:21:39;;;;;;;2.00;1.70;;;;;;;;;;5035037;28;20024;-39
2022/06/06 08:24:06;;;;;;;3.00;2.05;;;;;;;;;;5036321;28;20037;-39
2022/06/06 08:26:35;;;;;;;3.55;2.00;;;;;;;;;;5036313;28;20113;-39
2022/06/06 08:29:00;;;;;;;;;;;;;;;;;;5036604;28;20017;-39
2022/06/06 08:31:25;;;;;;;2.78;2.30;;;;;;;;;;5036056;28;20284;-39
2022/06/06 08:33:51;;;;;;;2.30;2.10;;;;;;;;;;5034538;28;20029;-39
2022/06/06 08:36:28;;;;;;;4.47;2.40;;;;;;;;;;5036175;28;20022;-39
2022/06/06 08:39:12;;;;;;;4.47;2.15;;;;;;;;;;5034906;28;20029;-39
2022/06/06 08:41:37;;;;;;;1.85;1.75;;;;;;;;;;5035928;28;20518;-39
2022/06/06 08:44:21;;;;;;;4.77;2.20;;;;;;;;;;5035991;28;20172;-39
2022/06/06 08:46:59;;;;;;;4.88;2.10;;;;;;;;;;5036259;28;20483;-39
2022/06/06 08:52:46;;;;;;;4.13;2.00;;;;;;;;;;5035905;28;20028;-40
2022/06/06 08:55:15;;;;;;;2.17;1.98;;;;;;;;;;5034603;28;20064;-39
2022/06/06 08:57:56;;;;;;;2.30;2.10;;;;;;;;;;5035774;28;20029;-39
2022/06/06 09:00:34;;;;;;;2.90;2.03;;;;;;;;;;5035675;28;20129;-39
2022/06/06 09:03:18;;;;;;;1.63;1.52;;;;;;;;;;5034246;28;20025;-39
2022/06/06 09:05:49;;;;;;;3.28;1.90;;;;;;;;;;5034925;28;20035;-39
2022/06/06 09:08:23;;;;;;;2.03;1.92;;;;;;;;;;5035327;28;20037;-39
2022/06/06 09:10:54;;;;;;;3.70;1.80;;;;;;;;;;5035149;28;20487;-39
2022/06/06 09:13:26;;;;;;;2.35;1.80;;;;;;;;;;5035836;28;20526;-39
2022/06/06 09:16:09;;;;;;;1.80;1.50;;;;;;;;;;5035296;28;20022;-39
2022/06/06 09:18:55;;;;;;;2.90;1.80;;;;;;;;;;5034112;28;20036;-39
2022/06/06 09:21:39;;;;;;;2.45;1.85;;;;;;;;;;5033891;28;20388;-39
2022/06/06 09:24:05;;;;;;;1.63;1.52;;;;;;;;;;5033694;28;20037;-39
2022/06/06 09:26:33;;;;;;;2.00;1.80;;;;;;;;;;5035313;28;20369;-38
2022/06/06 09:29:11;;;;;;;1.90;1.45;;;;;;;;;;5035491;28;20014;-39
2022/06/06 09:31:48;;;;;;;4.50;2.03;;;;;;;;;;5033675;28;20045;-39
2022/06/06 09:34:16;;;;;;;1.65;1.55;;;;;;;;;;5034890;28;20030;-39
2022/06/06 09:36:46;;;;;;;2.42;1.98;;;;;;;;;;5034790;28;20057;-39
2022/06/06 09:39:30;;;;;;;1.67;1.52;;;;;;;;;;5034883;28;20029;-38
2022/06/06 09:42:08;;;;;;;4.47;1.80;;;;;;;;;;5034742;28;20033;-38
2022/06/06 09:44:36;;;;;;;3.70;2.05;;;;;;;;;;5034688;28;20049;-38
2022/06/06 09:47:04;;;;;;;1.60;1.50;;;;;;;;;;5034649;28;20037;-38
2022/06/06 09:49:56;;;;;;;3.22;2.08;;;;;;;;;;5033585;28;20017;-38
2022/06/06 09:52:21;;;;;;;2.70;1.55;;;;;;;;;;5034224;28;20043;-38
2022/06/06 10:00:37;;;;;;;2.63;1.50;;;;;;;;;;5034507;28;20396;-39
2022/06/06 10:03:12;;;;;;;2.10;1.90;;;;;;;;;;5034635;28;20040;-39
2022/06/06 10:05:58;;;;;;;2.03;1.50;;;;;;;;;;5034267;28;20029;-40
2022/06/06 10:08:43;;;;;;;12.68;1.83;;;;;;;;;;5033136;28;20120;-39
2022/06/06 10:11:11;;;;;;;2.38;1.30;;;;;;;;;;5033074;28;20029;-38
2022/06/06 10:13:42;;;;;;;1.40;1.30;;;;;;;;;;5034493;28;20465;-38
2022/06/06 10:16:26;;;;;;;2.22;1.60;;;;;;;;;;5032692;28;20021;-39
2022/06/06 10:19:10;;;;;;;2.10;1.50;;;;;;;;;;5032785;28;20028;-40
2022/06/06 10:21:54;;;;;;;2.28;1.90;;;;;;;;;;5034362;28;20029;-39
2022/06/06 10:24:19;;;;;;;2.03;1.83;;;;;;;;;;5033941;28;20022;-39
2022/06/06 10:27:03;;;;;;;3.00;1.60;;;;;;;;;;5034029;28;20052;-39
2022/06/06 10:32:34;;;;;;;2.63;1.48;;;;;;;;;;5034426;28;20098;-38
2022/06/06 10:35:12;;;;;;;2.05;1.67;;;;;;;;;;5033388;28;20075;-39
2022/06/06 10:37:46;;;;;;;3.30;1.80;;;;;;;;;;5034326;28;20091;-39
2022/06/06 10:40:29;;;;;;;5.38;1.75;;;;;;;;;;5033676;28;20025;-39
2022/06/06 10:42:59;;;;;;;2.85;1.67;;;;;;;;;;5033971;28;20069;-39
2022/06/06 10:45:25;;;;;;;2.45;1.48;;;;;;;;;;5032251;28;20025;-39
2022/06/06 10:48:05;;;;;;;1.60;1.50;;;;;;;;;;5033505;28;20033;-39
2022/06/06 10:50:31;;;;;;;1.70;1.60;;;;;;;;;;5033505;28;20021;-39
2022/06/06 10:53:28;;;;;;;2.57;1.63;;;;;;;;;;5033817;28;20101;-39
2022/06/06 10:56:12;;;;;;;1.98;1.70;;;;;;;;;;5032252;28;20277;-39
2022/06/06 10:58:40;;;;;;;1.50;1.40;;;;;;;;;;5032305;28;20366;-39
2022/06/06 11:01:12;;;;;;;2.70;1.30;;;;;;;;;;5032258;28;20025;-39
2022/06/06 11:03:53;;;;;;;1.70;1.45;;;;;;;;;;5033335;28;20029;-38
2022/06/06 11:06:30;;;;;;;1.80;1.50;;;;;;;;;;5033177;28;20108;-39
2022/06/06 11:09:14;;;;;;;2.85;1.50;;;;;;;;;;5032080;28;20037;-39
2022/06/06 11:11:42;;;;;;;3.30;1.30;;;;;;;;;;5033167;28;20373;-39
2022/06/06 11:14:25;;;;;;;1.73;1.30;;;;;;;;;;5033511;28;20532;-39
2022/06/06 11:17:10;;;;;;;2.20;1.40;;;;;;;;;;5031735;28;20404;-39
2022/06/06 11:19:43;;;;;;;2.95;1.55;;;;;;;;;;5033498;28;20013;-37
2022/06/06 11:22:08;;;;;;;2.80;1.33;;;;;;;;;;5033215;28;20479;-40
2022/06/06 11:24:45;;;;;;;3.90;1.57;;;;;;;;;;5031829;28;20021;-39
2022/06/06 11:27:23;;;;;;;2.33;1.50;;;;;;;;;;5032819;28;20065;-40
2022/06/06 11:30:01;;;;;;;1.50;1.40;;;;;;;;;;5031598;28;20136;-39
2022/06/06 11:32:35;;;;;;;1.67;1.58;;;;;;;;;;5031826;28;20026;-39
2022/06/06 11:35:04;;;;;;;1.98;1.70;;;;;;;;;;5032927;28;20025;-40
2022/06/06 11:37:49;;;;;;;2.83;1.48;;;;;;;;;;5032985;28;20461;-39
2022/06/06 11:40:28;;;;;;;1.63;1.20;;;;;;;;;;5031656;28;20033;-39
2022/06/06 11:43:09;;;;;;;3.65;1.42;;;;;;;;;;5032715;28;20035;-39
2022/06/06 11:45:41;;;;;;;2.08;1.58;;;;;;;;;;5031513;28;20120;-39
2022/06/06 11:48:19;;;;;;;1.83;1.70;;;;;;;;;;5031198;28;20038;-40
2022/06/06 11:51:05;;;;;;;1.90;1.67;;;;;;;;;;5032699;28;20022;-39
2022/06/06 11:53:49;;;;;;;1.90;1.67;;;;;;;;;;5032831;28;20018;-39
2022/06/06 11:56:35;;;;;;;2.38;1.50;;;;;;;;;;5032678;28;20353;-39
2022/06/06 11:59:04;;;;;;;2.67;1.60;;;;;;;;;;5032947;28;20472;-39
2022/06/06 12:01:47;;;;;;;3.40;1.40;;;;;;;;;;5032240;28;20026;-39
2022/06/06 12:04:33;;;;;;;3.47;1.73;;;;;;;;;;5032575;28;20034;-39
2022/06/06 12:07:18;;;;;;;1.75;1.60;;;;;;;;;;5031634;28;20073;-39
2022/06/06 12:09:49;;;;;;;2.75;1.40;;;;;;;;;;5031186;28;20033;-39
2022/06/06 12:12:33;;;;;;;3.42;1.60;;;;;;;;;;5032767;28;20096;-39
2022/06/06 12:15:01;;;;;;;1.55;1.45;;;;;;;;;;5032481;28;20139;-39
2022/06/06 12:17:39;;;;;;;1.55;1.45;;;;;;;;;;5032324;28;20018;-40
2022/06/06 12:20:22;;;;;;;1.40;1.30;;;;;;;;;;5032709;28;20382;-39
2022/06/06 12:23:06;;;;;;;2.08;1.13;;;;;;;;;;5031289;28;20401;-39
2022/06/06 12:25:34;;;;;;;1.40;1.30;;;;;;;;;;5032464;28;20105;-39
2022/06/06 12:28:18;;;;;;;1.45;1.27;;;;;;;;;;5032195;28;20052;-40
2022/06/06 12:30:53;;;;;;;1.40;1.30;;;;;;;;;;5031207;28;20033;-39
2022/06/06 12:33:33;;;;;;;2.50;1.60;;;;;;;;;;5032366;28;20022;-39
2022/06/06 12:36:01;;;;;;;1.38;1.27;;;;;;;;;;5032269;28;20428;-39
2022/06/06 12:38:43;;;;;;;1.90;1.30;;;;;;;;;;5032127;28;20095;-39
2022/06/06 12:41:11;;;;;;;2.17;1.33;;;;;;;;;;5034594;28;20026;-39
2022/06/06 12:43:36;;;;;;;;;;;;;;;;;;5036280;28;20124;-39
2022/06/06 12:46:17;;;;;;;1.20;1.10;;;;;;;;;;5035967;28;20456;-39
2022/06/06 12:49:01;;;;;;;1.60;1.50;;;;;;;;;;5035656;28;20041;-41
2022/06/06 12:51:46;;;;;;;3.20;1.27;;;;;;;;;;5035736;28;20029;-39
2022/06/06 12:54:30;;;;;;;1.48;1.20;;;;;;;;;;5035847;28;20373;-40
2022/06/06 12:56:57;;;;;;;1.50;1.40;;;;;;;;;;5035662;28;20360;-39
2022/06/06 12:59:22;;;;;;;1.30;1.20;;;;;;;;;;5035546;28;20033;-40
2022/06/06 13:01:59;;;;;;;2.40;1.20;;;;;;;;;;5035615;28;20563;-40
2022/06/06 13:04:27;;;;;;;1.40;1.20;;;;;;;;;;5035466;28;20025;-40
2022/06/06 13:07:02;;;;;;;4.22;1.75;;;;;;;;;;5035596;28;20106;-39
2022/06/06 13:09:42;;;;;;;2.47;1.35;;;;;;;;;;5035682;28;20036;-39
2022/06/06 13:12:26;;;;;;;1.55;1.45;;;;;;;;;;5035700;28;20025;-40
2022/06/06 13:15:00;;;;;;;2.17;1.27;;;;;;;;;;5035768;28;20022;-40
2022/06/06 13:17:44;;;;;;;1.52;1.42;;;;;;;;;;5035624;28;20037;-40
2022/06/06 13:20:10;;;;;;;4.95;1.40;;;;;;;;;;5035109;28;20104;-40
2022/06/06 13:22:54;;;;;;;1.33;1.23;;;;;;;;;;5035465;28;20100;-39
2022/06/06 13:25:37;;;;;;;1.55;1.40;;;;;;;;;;5034089;28;20030;-40
2022/06/06 13:28:25;;;;;;;1.90;1.40;;;;;;;;;;5035062;28;20029;-40
2022/06/06 13:30:55;;;;;;;1.88;1.30;;;;;;;;;;5034986;28;20031;-39
2022/06/06 13:33:33;;;;;;;1.40;1.30;;;;;;;;;;5035104;28;20021;-39
2022/06/06 13:35:58;;;;;;;1.85;1.15;;;;;;;;;;5035110;28;20033;-39
2022/06/06 13:38:24;;;;;;;1.40;1.30;;;;;;;;;;5035219;28;20380;-39
2022/06/06 13:41:02;;;;;;;2.67;1.83;;;;;;;;;;5033640;28;20021;-39
2022/06/06 13:43:47;;;;;;;1.60;1.50;;;;;;;;;;5034575;28;20114;-40
2022/06/06 13:46:22;;;;;;;1.35;1.25;;;;;;;;;;5034827;28;20038;-39
2022/06/06 13:48:54;;;;;;;3.63;1.65;;;;;;;;;;5030372;28;20087;-40
2022/06/06 13:51:38;;;;;;;4.07;1.55;;;;;;;;;;5023672;28;20485;-39
2022/06/06 13:54:04;;;;;;;2.60;1.50;;;;;;;;;;5014968;28;20414;-39
2022/06/06 13:56:30;;;;;;;2.88;1.50;;;;;;;;;;5014769;28;20363;-40
2022/06/06 13:59:10;;;;;;;11.25;1.63;;;;;;;;;;5014797;28;20045;-39
2022/06/06 14:01:38;;;;;;;3.28;1.60;;;;;;;;;;5014642;28;20026;-40
2022/06/06 14:04:20;;;;;;;2.75;1.45;;;;;;;;;;5024761;28;20372;-40
2022/06/06 14:07:03;;;;;;;1.40;1.30;;;;;;;;;;5034400;28;20029;-39
2022/06/06 14:09:40;;;;;;;1.80;1.60;;;;;;;;;;5033092;28;20021;-39
2022/06/06 14:12:11;;;;;;;2.35;1.67;;;;;;;;;;5034344;28;20064;-39
2022/06/06 14:14:38;;;;;;;3.90;1.20;;;;;;;;;;5034080;28;20024;-39
2022/06/06 14:17:04;;;;;;;2.83;1.42;;;;;;;;;;5034216;28;20025;-39
2022/06/06 14:19:35;;;;;;;1.70;1.58;;;;;;;;;;5033044;28;20021;-39
2022/06/06 14:22:03;;;;;;;1.63;1.50;;;;;;;;;;5033028;28;20022;-39
2022/06/06 14:24:29;;;;;;;2.28;1.30;;;;;;;;;;5034061;28;20028;-39
2022/06/06 14:26:57;;;;;;;1.90;1.48;;;;;;;;;;5033862;28;20112;-39
2022/06/06 14:29:30;;;;;;;1.40;1.30;;;;;;;;;;5032462;28;20036;-39
2022/06/06 14:31:58;;;;;;;1.80;1.55;;;;;;;;;;5032801;28;20030;-39
2022/06/06 14:34:32;;;;;;;2.10;1.77;;;;;;;;;;5032613;28;20075;-39
2022/06/06 14:37:18;;;;;;;1.65;1.48;;;;;;;;;;5032463;28;20037;-39
2022/06/06 14:39:54;;;;;;;1.52;1.42;;;;;;;;;;5031726;28;20033;-39
2022/06/06 14:42:24;;;;;;;2.60;1.25;;;;;;;;;;5033814;28;20017;-39
2022/06/06 14:45:13;;;;;;;1.73;1.48;;;;;;;;;;5032114;28;20057;-39
2022/06/06 14:47:53;;;;;;;1.63;1.43;;;;;;;;;;5029193;28;20064;-39
2022/06/06 14:53:14;;;;;;;1.52;1.10;;;;;;;;;;5033487;28;20045;-39
2022/06/06 14:55:42;;;;;;;2.25;1.30;;;;;;;;;;5032196;28;20031;-39
2022/06/06 14:58:09;;;;;;;1.65;1.55;;;;;;;;;;5033684;28;20461;-39
2022/06/06 15:00:48;;;;;;;3.67;1.60;;;;;;;;;;5033284;28;20022;-40
2022/06/06 15:03:13;;;;;;;3.53;1.80;;;;;;;;;;5032890;28;20573;-39
2022/06/06 15:05:39;;;;;;;2.63;1.50;;;;;;;;;;5032233;28;20045;-39
2022/06/06 15:08:20;;;;;;;1.92;1.52;;;;;;;;;;5033185;28;20439;-39
2022/06/06 15:10:46;;;;;;;2.70;1.60;;;;;;;;;;5033447;28;20472;-39
2022/06/06 15:13:12;;;;;;;1.53;1.43;;;;;;;;;;5033090;28;20056;-39
2022/06/06 15:15:38;;;;;;;1.60;1.50;;;;;;;;;;5031983;28;20290;-39
2022/06/06 15:18:04;;;;;;;1.60;1.50;;;;;;;;;;5032020;28;20048;-39
2022/06/06 15:20:34;;;;;;;2.17;1.40;;;;;;;;;;5031824;28;20021;-39
2022/06/06 15:23:15;;;;;;;1.52;1.42;;;;;;;;;;5033017;28;20420;-39
2022/06/06 15:26:01;;;;;;;2.00;1.23;;;;;;;;;;5031779;28;20068;-40
2022/06/06 15:28:31;;;;;;;3.05;1.50;;;;;;;;;;5027485;28;20076;-39
2022/06/06 15:30:56;;;;;;;1.63;1.52;;;;;;;;;;5031675;28;20025;-39
2022/06/06 15:33:36;;;;;;;2.57;1.47;;;;;;;;;;5032900;28;20029;-39
2022/06/06 15:36:20;;;;;;;4.75;1.70;;;;;;;;;;5031487;28;20267;-39
2022/06/06 15:38:46;;;;;;;1.88;1.70;;;;;;;;;;5032838;28;20025;-39
2022/06/06 15:41:14;;;;;;;3.22;1.75;;;;;;;;;;5031616;28;20075;-39
2022/06/06 15:43:39;;;;;;;2.10;1.70;;;;;;;;;;5031364;28;20053;-39
2022/06/06 15:46:25;;;;;;;1.37;1.27;;;;;;;;;;5031455;28;20025;-39
2022/06/06 15:48:57;;;;;;;1.77;1.50;;;;;;;;;;5031589;28;20303;-39